KINT/INT METAR and TAF weather

Enter ICAO airport designator
Station Type Date Time Source
KINT METAR 2020/07/09 23:54 UTC NOAA

KINT 092354Z 04004KT 10SM BKN050 BKN070 29/22 A2992 RMK AO2 SLP119 T02890222 10306 20272 55003


Station Type Date Time Source
KINT Decoded METAR 2020/07/09 23:54 UTC NOAA

WINSTON SALEM SMITH REYNOLDS, NC, United States (KINT) 36-08N 80-14W 291M
Jul 09, 2020 - 07:54 PM EDT / 2020.07.09 2354 UTC
Wind: from the NE (040 degrees) at 5 MPH (4 KT):0
Visibility: 10 mile(s):0
Sky conditions: mostly cloudy
Temperature: 84.0 F (28.9 C)
Dew Point: 72.0 F (22.2 C)
Relative Humidity: 67%
Pressure (altimeter): 29.92 in. Hg (1013 hPa)
Pressure tendency: 0.01 inches (0.3 hPa) lower than three hours ago
ob: KINT 092354Z 04004KT 10SM BKN050 BKN070 29/22 A2992 RMK AO2 SLP119 T02890222 10306 20272 55003
cycle: 0

Station Type Date Time Source
KINT TAF 2020/07/09 18:22 UTC NOAA

TAF KINT 091720Z 0918/1018 05007KT P6SM BKN050
FM100000 05003KT P6SM FEW050 SCT250

Example: see airport list